طرابلس, ليبيا

07:56 PM EET on أعس×س 30, 2015 (GMT +0200)
Mitiga | | Change Station
CLOSE
Current Station
Airport
Location: Tripoli Mitiga,
Elevation: 36 ft
Nearby Weather Stations

Elev 36 ft 32.89 °N, 13.28 °E | Updated 6 minutes ago

Partly Cloudy
غائم جزئياً
82 °F
Feels Like 85 °F
N
13
ريح متغير ريح from شرق

هذا اليوم
High -- | Low -- °F
--% Chance of Precip.
Yesterday
High -- | Low -- °F
Precip. -- في
6:40 AM 7:35 PM
بدر, 99% visible
الضغط 30.06 في
وضوح الرؤية 6.2 أميال
سحابات Few 2500 ft
مؤشر الحرارة 85 °F
نقطة الندى 66 °F
الرطوبة 58%
Rainfall 0.00 في
عمق الثلج Not available.
الأشعة فوق البنفسجية 0 out of 12
Pollen Not available.
جودة الهواء Not available.
Flu Activity Not available.
METAR HLLM 301750Z 09011KT 9999 FEW025 28/19 Q1018
الضغط 30.06 في
وضوح الرؤية 6.2 أميال
سحابات Few 2500 ft
مؤشر الحرارة 85 °F
نقطة الندى 66 °F
الرطوبة 58%
Rainfall 0.00 في
عمق الثلج Not available.
الأشعة فوق البنفسجية 0 out of 12
Pollen Not available.
جودة الهواء Not available.
Flu Activity Not available.
METAR HLLM 301750Z 09011KT 9999 FEW025 28/19 Q1018

10-Day Weather Forecast

×

Almanac

علم الفلك

Aug. 30, 2015 Rise Set
Actual Time
Civil Twilight
Nautical Twilight
Astronomical Twilight
قمر
Length Of Visible Light
طول الیوم
Tomorrow will be .
, % of the Moon is Illuminated

Today's Extremes

Country Highs Country Lows

Community

WunderPhotos

Upload Photos

1,851,014 photos uploaded!

WunderBlogs® & News

Nearby

جودة الهواء

  جودة الهواء AQ Index Pollutant
Not available.

عمق الثلج

Station Depth Elevation

Earthquake Activity

City Distance Mag. Time & Date
Minimum magnitude displayed is 2.5.

Coastal Water Temperatures

مكان درجات الحرارة

Stations

Nearby Weather Stations

Station Location الحرارة رياح باردة نقطة الندى الرطوبة ريح Precip. Elev تحديث Type